Terminal Aerodrome Forecast
Issued by NWS Twin Cities, MN

Home | Current Version | Previous Version | Graphics & Text | Print | Product List | Glossary On
Versions: 1 2 3 4 5 6 7 8 9 10 11 12 13 14 15 16
023
FTUS43 KMPX 281120
TAFEAU
TAF
KEAU 281120Z 2812/2912 04004KT P6SM VCSH BKN008 OVC012
     FM281700 06007KT P6SM OVC015
     FM282000 04005KT P6SM OVC025
     FM290000 04003KT P6SM OVC035=

USA.gov is the U.S. government's official web portal to all federal, state and local government web resources and services.